createdAt,value
2023-05-07T00:00:41.316Z,100.00
2023-05-07T00:03:09.578Z,100.00
2023-05-07T00:05:38.873Z,100.00
2023-05-07T00:08:07.225Z,100.00
2023-05-07T00:10:35.884Z,100.00
2023-05-07T00:13:05.600Z,100.00
2023-05-07T00:15:33.780Z,100.00
2023-05-07T00:18:02.097Z,100.00
2023-05-07T00:20:30.374Z,100.00
2023-05-07T00:22:58.834Z,100.00
2023-05-07T00:25:27.097Z,100.00
2023-05-07T00:27:55.857Z,100.00
2023-05-07T00:30:25.543Z,100.00
2023-05-07T00:32:53.884Z,100.00
2023-05-07T00:35:22.182Z,100.00
2023-05-07T00:37:50.821Z,100.00
2023-05-07T00:40:19.149Z,100.00
2023-05-07T00:42:48.166Z,100.00
2023-05-07T00:45:16.757Z,100.00
2023-05-07T00:47:46.292Z,100.00
2023-05-07T00:50:15.059Z,100.00
2023-05-07T00:52:43.723Z,100.00
2023-05-07T00:55:13.071Z,100.00
2023-05-07T00:57:42.789Z,100.00
2023-05-07T01:00:14.108Z,100.00
2023-05-07T01:02:42.781Z,100.00
2023-05-07T01:05:15.452Z,100.00
2023-05-07T01:07:44.700Z,100.00
2023-05-07T01:10:13.767Z,100.00
2023-05-07T01:12:43.607Z,100.00
2023-05-07T01:15:12.294Z,100.00
2023-05-07T01:17:43.680Z,100.00
2023-05-07T01:20:23.339Z,100.00
2023-05-07T01:22:55.607Z,100.00
2023-05-07T01:25:24.271Z,100.00
2023-05-07T01:27:55.186Z,100.00
2023-05-07T01:30:28.483Z,100.00
2023-05-07T01:33:01.444Z,100.00
2023-05-07T01:35:42.931Z,100.00
2023-05-07T01:38:12.707Z,100.00
2023-05-07T01:40:41.158Z,100.00
2023-05-07T01:43:09.513Z,100.00
2023-05-07T01:45:38.885Z,100.00
2023-05-07T01:48:07.843Z,100.00
2023-05-07T01:50:37.201Z,100.00
2023-05-07T01:53:05.482Z,100.00
2023-05-07T01:55:35.045Z,100.00
2023-05-07T01:58:03.541Z,100.00
2023-05-07T02:00:31.969Z,100.00
2023-05-07T02:03:00.466Z,100.00
2023-05-07T02:05:40.117Z,100.00
2023-05-07T02:08:17.935Z,100.00
2023-05-07T02:10:47.626Z,100.00
2023-05-07T02:13:15.971Z,100.00
2023-05-07T02:15:45.730Z,100.00
2023-05-07T02:18:13.873Z,100.00
2023-05-07T02:20:42.027Z,100.00
2023-05-07T02:23:10.282Z,100.00
2023-05-07T02:25:38.911Z,100.00
2023-05-07T02:28:08.583Z,100.00
2023-05-07T02:30:56.215Z,100.00
2023-05-07T02:33:24.528Z,100.00
2023-05-07T02:35:53.027Z,100.00
2023-05-07T02:38:21.208Z,100.00
2023-05-07T02:40:49.543Z,100.00
2023-05-07T02:43:19.726Z,100.00
2023-05-07T02:45:50.203Z,100.00
2023-05-07T02:48:18.478Z,100.00
2023-05-07T02:50:46.702Z,100.00
2023-05-07T02:53:16.476Z,100.00
2023-05-07T02:55:44.732Z,100.00
2023-05-07T02:58:13.014Z,100.00
2023-05-07T03:00:44.420Z,100.00
2023-05-07T03:03:27.878Z,100.00
2023-05-07T03:05:56.168Z,100.00
2023-05-07T03:08:24.498Z,100.00
2023-05-07T03:10:53.068Z,100.00
2023-05-07T03:13:21.565Z,100.00
2023-05-07T03:15:52.029Z,100.00
2023-05-07T03:18:20.602Z,100.00
2023-05-07T03:20:50.452Z,100.00
2023-05-07T03:23:19.993Z,100.00
2023-05-07T03:25:48.723Z,100.00
2023-05-07T03:28:17.131Z,100.00
2023-05-07T03:30:52.831Z,100.00
2023-05-07T03:33:21.346Z,100.00
2023-05-07T03:35:50.243Z,100.00
2023-05-07T03:38:22.878Z,100.00
2023-05-07T03:40:51.566Z,100.00
2023-05-07T03:43:20.330Z,100.00
2023-05-07T03:45:55.966Z,100.00
2023-05-07T03:48:27.252Z,100.00
2023-05-07T03:50:59.303Z,100.00
2023-05-07T03:53:31.392Z,100.00
2023-05-07T03:55:59.873Z,100.00
2023-05-07T03:58:29.038Z,100.00
2023-05-07T04:01:02.147Z,100.00
2023-05-07T04:03:31.822Z,100.00
2023-05-07T04:06:01.920Z,100.00
2023-05-07T04:08:34.093Z,100.00
2023-05-07T04:11:02.485Z,100.00
2023-05-07T04:13:33.732Z,100.00
2023-05-07T04:16:07.041Z,100.00
2023-05-07T04:18:37.554Z,100.00
2023-05-07T04:21:07.143Z,100.00
2023-05-07T04:23:38.362Z,100.00
2023-05-07T04:26:13.027Z,100.00
2023-05-07T04:28:44.657Z,100.00
2023-05-07T04:31:14.583Z,100.00
2023-05-07T04:33:43.383Z,100.00
2023-05-07T04:36:15.435Z,100.00
2023-05-07T04:38:52.721Z,100.00
2023-05-07T04:41:21.909Z,100.00
2023-05-07T04:43:50.684Z,100.00
2023-05-07T04:46:22.550Z,100.00
2023-05-07T04:48:51.689Z,100.00
2023-05-07T04:51:20.304Z,100.00
2023-05-07T04:53:49.341Z,100.00
2023-05-07T04:56:18.713Z,100.00
2023-05-07T04:58:52.312Z,100.00
2023-05-07T05:01:24.268Z,100.00
2023-05-07T05:03:52.643Z,100.00
2023-05-07T05:06:21.906Z,100.00
2023-05-07T05:08:51.365Z,100.00
2023-05-07T05:11:19.783Z,100.00
2023-05-07T05:13:49.952Z,100.00
2023-05-07T05:16:21.658Z,100.00
2023-05-07T05:18:53.184Z,100.00
2023-05-07T05:21:21.569Z,100.00
2023-05-07T05:23:53.018Z,100.00
2023-05-07T05:26:24.115Z,100.00
2023-05-07T05:28:52.352Z,100.00
2023-05-07T05:31:23.405Z,100.00
2023-05-07T05:33:54.123Z,100.00
2023-05-07T05:39:12.142Z,100.00
2023-05-07T05:41:40.531Z,100.00
2023-05-07T05:44:09.730Z,100.00
2023-05-07T05:46:38.520Z,100.00
2023-05-07T05:49:12.064Z,100.00
2023-05-07T05:51:41.089Z,100.00
2023-05-07T05:54:09.798Z,100.00
2023-05-07T05:56:39.253Z,100.00
2023-05-07T05:59:09.409Z,100.00
2023-05-07T06:01:38.252Z,100.00
2023-05-07T06:04:07.173Z,100.00
2023-05-07T06:06:37.766Z,100.00
2023-05-07T06:09:05.992Z,100.00
2023-05-07T06:14:33.188Z,100.00
2023-05-07T06:17:02.259Z,100.00
2023-05-07T06:19:30.655Z,100.00
2023-05-07T06:22:02.435Z,100.00
2023-05-07T06:24:32.168Z,100.00
2023-05-07T06:27:01.189Z,100.00
2023-05-07T06:29:32.624Z,100.00
2023-05-07T06:32:09.172Z,100.00
2023-05-07T06:34:38.239Z,100.00
2023-05-07T06:37:09.636Z,100.00
2023-05-07T06:39:52.161Z,100.00
2023-05-07T06:42:20.623Z,100.00
2023-05-07T06:44:51.533Z,100.00
2023-05-07T06:47:21.322Z,100.00
2023-05-07T06:49:53.968Z,100.00
2023-05-07T06:52:27.252Z,100.00
2023-05-07T06:54:57.350Z,100.00
2023-05-07T06:57:27.390Z,100.00
2023-05-07T06:59:56.459Z,100.00
2023-05-07T07:02:25.230Z,100.00
2023-05-07T07:04:54.865Z,100.00
2023-05-07T07:07:26.371Z,100.00
2023-05-07T07:09:56.720Z,100.00
2023-05-07T07:12:27.084Z,100.00
2023-05-07T07:14:55.473Z,100.00
2023-05-07T07:17:25.874Z,100.00
2023-05-07T07:19:55.032Z,100.00
2023-05-07T07:22:24.235Z,100.00
2023-05-07T07:24:53.342Z,100.00
2023-05-07T07:27:23.345Z,100.00
2023-05-07T07:29:52.203Z,100.00
2023-05-07T07:32:21.652Z,100.00
2023-05-07T07:34:50.655Z,100.00
2023-05-07T07:37:19.247Z,100.00
2023-05-07T07:39:48.786Z,100.00
2023-05-07T07:42:17.363Z,100.00
2023-05-07T07:44:55.933Z,100.00
2023-05-07T07:47:26.470Z,100.00
2023-05-07T07:49:55.699Z,100.00
2023-05-07T07:52:24.743Z,100.00
2023-05-07T07:54:54.464Z,99.82
2023-05-07T07:57:26.606Z,97.59
2023-05-07T07:59:56.716Z,100.00
2023-05-07T08:02:27.283Z,100.00
2023-05-07T08:04:59.299Z,100.00
2023-05-07T08:07:27.906Z,98.05
2023-05-07T08:13:05.098Z,96.08
2023-05-07T08:15:38.067Z,95.42
2023-05-07T08:18:19.298Z,93.45
2023-05-07T08:20:49.236Z,87.94
2023-05-07T08:23:22.549Z,87.34
2023-05-07T08:25:53.363Z,90.69
2023-05-07T08:28:22.625Z,87.77
2023-05-07T08:30:52.897Z,83.14
2023-05-07T08:33:22.263Z,85.69
2023-05-07T08:35:50.668Z,84.07
2023-05-07T08:38:19.064Z,84.59
2023-05-07T08:40:50.950Z,86.09
2023-05-07T08:43:24.196Z,83.21
2023-05-07T08:45:56.708Z,85.50
2023-05-07T08:48:29.788Z,83.68
2023-05-07T08:51:06.834Z,81.16
2023-05-07T08:53:35.724Z,77.20
2023-05-07T08:56:08.109Z,75.13
2023-05-07T08:58:37.058Z,73.86
2023-05-07T09:01:10.650Z,72.05
2023-05-07T09:03:40.571Z,71.25
2023-05-07T09:06:09.130Z,69.73
2023-05-07T09:08:37.995Z,66.50
2023-05-07T09:11:08.077Z,65.37
2023-05-07T09:13:36.579Z,68.20
2023-05-07T09:16:14.429Z,67.87
2023-05-07T09:18:46.308Z,65.76
2023-05-07T09:21:19.806Z,66.16
2023-05-07T09:23:51.420Z,64.18
2023-05-07T09:26:22.361Z,63.50
2023-05-07T09:28:51.392Z,62.97
2023-05-07T09:31:21.760Z,62.97
2023-05-07T09:33:51.289Z,61.55
2023-05-07T09:36:21.798Z,59.47
2023-05-07T09:38:52.635Z,59.77
2023-05-07T09:41:45.774Z,57.91
2023-05-07T09:44:24.389Z,57.12
2023-05-07T09:46:57.989Z,57.90
2023-05-07T09:49:37.297Z,57.69
2023-05-07T09:52:11.665Z,55.80
2023-05-07T09:54:51.707Z,52.53
2023-05-07T09:57:26.622Z,53.02
2023-05-07T10:00:00.711Z,53.33
2023-05-07T10:02:36.381Z,51.27
2023-05-07T10:05:06.181Z,53.49
2023-05-07T10:07:38.261Z,54.49
2023-05-07T10:10:11.719Z,55.13
2023-05-07T10:12:47.002Z,57.56
2023-05-07T10:15:26.603Z,57.52
2023-05-07T10:18:02.230Z,57.48
2023-05-07T10:20:39.750Z,55.38
2023-05-07T10:23:16.746Z,53.45
2023-05-07T10:25:53.791Z,52.87
2023-05-07T10:28:28.272Z,50.86
2023-05-07T10:31:11.955Z,50.14
2023-05-07T10:33:56.530Z,50.31
2023-05-07T10:36:26.488Z,49.58
2023-05-07T10:38:56.405Z,48.83
2023-05-07T10:41:25.141Z,46.91
2023-05-07T10:43:54.285Z,46.83
2023-05-07T10:46:36.375Z,46.84
2023-05-07T10:49:16.701Z,46.64
2023-05-07T10:52:15.890Z,43.93
2023-05-07T10:55:26.501Z,44.23
2023-05-07T11:01:05.629Z,45.56
2023-05-07T11:04:17.106Z,45.22
2023-05-07T11:07:37.007Z,45.16
2023-05-07T11:10:13.721Z,45.08
2023-05-07T11:12:58.561Z,44.91
2023-05-07T11:15:43.051Z,44.91
2023-05-07T11:18:49.100Z,44.29
2023-05-07T11:21:49.406Z,44.04
2023-05-07T11:24:41.997Z,42.86
2023-05-07T11:27:11.188Z,41.14
2023-05-07T11:29:39.752Z,40.75
2023-05-07T11:32:15.841Z,42.00
2023-05-07T11:34:53.888Z,41.60
2023-05-07T11:37:25.748Z,40.66
2023-05-07T11:40:06.697Z,40.09
2023-05-07T11:42:35.962Z,38.77
2023-05-07T11:45:04.525Z,38.80
2023-05-07T11:47:34.200Z,40.64
2023-05-07T11:50:05.662Z,40.37
2023-05-07T11:52:36.949Z,41.74
2023-05-07T11:55:06.190Z,41.26
2023-05-07T11:57:36.381Z,40.62
2023-05-07T12:00:08.284Z,40.62
2023-05-07T12:02:46.082Z,40.78
2023-05-07T12:05:15.011Z,40.48
2023-05-07T12:07:45.676Z,40.18
2023-05-07T12:10:14.944Z,40.76
2023-05-07T12:12:44.035Z,41.25
2023-05-07T12:15:13.088Z,40.74
2023-05-07T12:17:42.779Z,40.39
2023-05-07T12:20:12.722Z,40.16
2023-05-07T12:22:41.125Z,39.75
2023-05-07T12:25:11.958Z,39.53
2023-05-07T12:27:42.589Z,40.25
2023-05-07T12:30:14.050Z,39.95
2023-05-07T12:32:44.776Z,39.70
2023-05-07T12:35:13.882Z,39.61
2023-05-07T12:37:43.481Z,40.26
2023-05-07T12:40:14.273Z,40.29
2023-05-07T12:42:46.249Z,39.26
2023-05-07T12:45:18.528Z,39.93
2023-05-07T12:47:47.722Z,40.79
2023-05-07T12:50:16.612Z,41.53
2023-05-07T12:52:45.725Z,43.78
2023-05-07T12:55:17.088Z,43.37
2023-05-07T12:57:47.919Z,43.86
2023-05-07T13:00:17.088Z,44.00
2023-05-07T13:02:46.964Z,45.57
2023-05-07T13:05:16.475Z,47.81
2023-05-07T13:07:55.400Z,50.68
2023-05-07T13:10:26.793Z,55.82
2023-05-07T13:12:55.240Z,86.47
2023-05-07T13:15:24.490Z,100.00
2023-05-07T13:17:52.923Z,100.00
2023-05-07T13:20:21.512Z,100.00
2023-05-07T13:22:49.931Z,100.00
2023-05-07T13:25:19.041Z,100.00
2023-05-07T13:27:59.557Z,100.00
2023-05-07T13:33:03.721Z,100.00
2023-05-07T13:35:32.282Z,100.00
2023-05-07T13:38:00.739Z,100.00
2023-05-07T13:40:29.157Z,100.00
2023-05-07T13:42:59.664Z,100.00
2023-05-07T13:45:35.690Z,100.00
2023-05-07T13:48:04.422Z,100.00
2023-05-07T13:50:34.515Z,100.00
2023-05-07T13:53:02.860Z,100.00
2023-05-07T13:55:31.864Z,100.00
2023-05-07T13:58:06.981Z,100.00
2023-05-07T14:00:35.914Z,100.00
2023-05-07T14:03:04.304Z,100.00
2023-05-07T14:05:32.580Z,100.00
2023-05-07T14:08:01.676Z,100.00
2023-05-07T14:10:29.828Z,100.00
2023-05-07T14:12:58.024Z,100.00
2023-05-07T14:15:27.557Z,100.00
2023-05-07T14:17:55.715Z,100.00
2023-05-07T14:20:24.062Z,100.00
2023-05-07T14:22:52.262Z,100.00
2023-05-07T14:25:20.612Z,100.00
2023-05-07T14:27:52.284Z,100.00
2023-05-07T14:30:20.421Z,100.00
2023-05-07T14:32:51.079Z,100.00
2023-05-07T14:35:19.616Z,100.00
2023-05-07T14:37:47.749Z,100.00
2023-05-07T14:40:16.458Z,100.00
2023-05-07T14:42:44.949Z,100.00
2023-05-07T14:45:13.970Z,100.00
2023-05-07T14:47:42.603Z,100.00
2023-05-07T14:50:16.931Z,100.00
2023-05-07T14:52:47.545Z,100.00
2023-05-07T14:55:21.926Z,100.00
2023-05-07T14:57:50.276Z,100.00
2023-05-07T15:00:19.035Z,100.00
2023-05-07T15:02:47.551Z,100.00
2023-05-07T15:05:18.529Z,100.00
2023-05-07T15:07:47.362Z,100.00
2023-05-07T15:10:31.968Z,100.00
2023-05-07T15:13:00.340Z,100.00
2023-05-07T15:15:29.130Z,100.00
2023-05-07T15:17:57.830Z,100.00
2023-05-07T15:20:28.035Z,100.00
2023-05-07T15:22:56.895Z,100.00
2023-05-07T15:25:26.984Z,100.00
2023-05-07T15:27:57.078Z,100.00
2023-05-07T15:30:26.452Z,100.00
2023-05-07T15:32:57.186Z,100.00
2023-05-07T15:35:29.085Z,100.00
2023-05-07T15:37:59.031Z,100.00
2023-05-07T15:40:28.289Z,100.00
2023-05-07T15:42:58.637Z,100.00
2023-05-07T15:45:28.087Z,100.00
2023-05-07T15:47:57.405Z,100.00
2023-05-07T15:50:30.548Z,100.00
2023-05-07T15:53:00.022Z,100.00
2023-05-07T15:55:29.209Z,100.00
2023-05-07T15:58:01.568Z,100.00
2023-05-07T16:00:31.288Z,100.00
2023-05-07T16:03:02.612Z,100.00
2023-05-07T16:05:34.500Z,100.00
2023-05-07T16:08:11.898Z,100.00
2023-05-07T16:10:53.113Z,100.00
2023-05-07T16:13:31.696Z,100.00
2023-05-07T16:16:08.822Z,100.00
2023-05-07T16:22:50.466Z,100.00
2023-05-07T16:25:21.035Z,100.00
2023-05-07T16:27:50.232Z,100.00
2023-05-07T16:30:21.452Z,100.00
2023-05-07T16:32:52.541Z,100.00
2023-05-07T16:35:22.271Z,100.00
2023-05-07T16:37:53.688Z,100.00
2023-05-07T16:40:23.892Z,100.00
2023-05-07T16:42:55.552Z,100.00
2023-05-07T16:45:25.028Z,100.00
2023-05-07T16:47:54.331Z,100.00
2023-05-07T16:50:24.105Z,100.00
2023-05-07T16:52:56.188Z,100.00
2023-05-07T16:55:25.625Z,100.00
2023-05-07T16:57:54.842Z,100.00
2023-05-07T17:00:26.415Z,100.00
2023-05-07T17:02:59.232Z,100.00
2023-05-07T17:05:29.338Z,100.00
2023-05-07T17:08:01.989Z,100.00
2023-05-07T17:10:31.130Z,100.00
2023-05-07T17:13:00.385Z,100.00
2023-05-07T17:15:29.507Z,100.00
2023-05-07T17:17:59.015Z,100.00
2023-05-07T17:20:29.293Z,100.00
2023-05-07T17:22:58.529Z,100.00
2023-05-07T17:25:29.065Z,100.00
2023-05-07T17:27:58.226Z,100.00
2023-05-07T17:30:27.521Z,100.00
2023-05-07T17:33:06.277Z,100.00
2023-05-07T17:35:42.312Z,100.00
2023-05-07T17:38:11.949Z,100.00
2023-05-07T17:40:42.994Z,100.00
2023-05-07T17:43:12.310Z,100.00
2023-05-07T17:45:41.662Z,100.00
2023-05-07T17:48:17.048Z,100.00
2023-05-07T17:50:48.841Z,100.00
2023-05-07T17:53:20.082Z,100.00
2023-05-07T17:55:52.988Z,100.00
2023-05-07T17:58:24.544Z,100.00
2023-05-07T18:00:56.370Z,100.00
2023-05-07T18:03:28.652Z,100.00
2023-05-07T18:05:58.982Z,100.00
2023-05-07T18:08:28.074Z,100.00
2023-05-07T18:10:59.828Z,100.00
2023-05-07T18:13:29.826Z,100.00
2023-05-07T18:15:59.158Z,100.00
2023-05-07T18:18:31.402Z,100.00
2023-05-07T18:21:01.631Z,100.00
2023-05-07T18:23:30.772Z,100.00
2023-05-07T18:26:01.503Z,100.00
2023-05-07T18:28:30.850Z,100.00
2023-05-07T18:31:00.149Z,100.00
2023-05-07T18:33:29.378Z,100.00
2023-05-07T18:35:58.718Z,100.00
2023-05-07T18:38:28.357Z,100.00
2023-05-07T18:41:05.053Z,100.00
2023-05-07T18:43:35.385Z,100.00
2023-05-07T18:46:04.768Z,100.00
2023-05-07T18:48:34.338Z,100.00
2023-05-07T18:51:03.645Z,100.00
2023-05-07T18:53:33.024Z,100.00
2023-05-07T18:56:04.797Z,100.00
2023-05-07T18:58:35.230Z,100.00
2023-05-07T19:01:08.889Z,100.00
2023-05-07T19:03:38.338Z,100.00
2023-05-07T19:06:07.821Z,100.00
2023-05-07T19:08:36.954Z,100.00
2023-05-07T19:11:08.062Z,100.00
2023-05-07T19:13:37.199Z,100.00
2023-05-07T19:16:10.817Z,100.00
2023-05-07T19:18:40.013Z,100.00
2023-05-07T19:21:09.538Z,100.00
2023-05-07T19:23:42.387Z,100.00
2023-05-07T19:26:13.661Z,100.00
2023-05-07T19:28:45.541Z,100.00
2023-05-07T19:31:21.955Z,100.00
2023-05-07T19:33:51.697Z,100.00
2023-05-07T19:36:21.076Z,100.00
2023-05-07T19:38:53.720Z,100.00
2023-05-07T19:41:24.216Z,100.00
2023-05-07T19:43:53.292Z,100.00
2023-05-07T19:46:22.445Z,100.00
2023-05-07T19:48:51.675Z,100.00
2023-05-07T19:51:20.842Z,100.00
2023-05-07T19:53:49.995Z,100.00
2023-05-07T19:56:19.254Z,100.00
2023-05-07T19:58:51.132Z,100.00
2023-05-07T20:01:20.493Z,100.00
2023-05-07T20:03:49.808Z,100.00
2023-05-07T20:06:19.074Z,100.00
2023-05-07T20:08:48.250Z,100.00
2023-05-07T20:11:17.679Z,100.00
2023-05-07T20:13:48.008Z,100.00
2023-05-07T20:16:19.008Z,100.00
2023-05-07T20:18:48.225Z,100.00
2023-05-07T20:21:17.633Z,100.00
2023-05-07T20:23:46.849Z,100.00
2023-05-07T20:26:16.052Z,100.00
2023-05-07T20:28:45.446Z,100.00
2023-05-07T20:31:14.869Z,100.00
2023-05-07T20:33:45.570Z,100.00
2023-05-07T20:36:14.872Z,100.00
2023-05-07T20:38:44.742Z,100.00
2023-05-07T20:41:15.017Z,100.00
2023-05-07T20:43:44.379Z,100.00
2023-05-07T20:46:15.530Z,100.00
2023-05-07T20:48:46.390Z,100.00
2023-05-07T20:51:16.375Z,100.00
2023-05-07T20:53:46.849Z,100.00
2023-05-07T20:56:16.763Z,100.00
2023-05-07T20:58:45.732Z,100.00
2023-05-07T21:01:14.206Z,100.00
2023-05-07T21:03:42.666Z,100.00
2023-05-07T21:06:12.516Z,100.00
2023-05-07T21:08:40.750Z,100.00
2023-05-07T21:11:10.529Z,100.00
2023-05-07T21:13:38.923Z,100.00
2023-05-07T21:16:07.386Z,100.00
2023-05-07T21:18:35.637Z,100.00
2023-05-07T21:21:10.738Z,100.00
2023-05-07T21:23:45.124Z,100.00
2023-05-07T21:26:19.575Z,100.00
2023-05-07T21:28:49.330Z,100.00
2023-05-07T21:31:17.890Z,100.00
2023-05-07T21:33:46.329Z,100.00
2023-05-07T21:36:14.697Z,100.00
2023-05-07T21:38:45.090Z,100.00
2023-05-07T21:41:13.533Z,100.00
2023-05-07T21:43:41.768Z,100.00
2023-05-07T21:46:10.462Z,100.00
2023-05-07T21:48:40.040Z,100.00
2023-05-07T21:51:09.602Z,100.00
2023-05-07T21:53:38.077Z,100.00
2023-05-07T21:56:08.108Z,100.00
2023-05-07T21:58:36.309Z,100.00
2023-05-07T22:01:05.456Z,100.00
2023-05-07T22:03:33.833Z,100.00
2023-05-07T22:06:02.111Z,100.00
2023-05-07T22:08:30.515Z,100.00
2023-05-07T22:10:58.687Z,100.00
2023-05-07T22:13:28.636Z,100.00
2023-05-07T22:15:58.785Z,100.00
2023-05-07T22:18:27.307Z,100.00
2023-05-07T22:20:55.558Z,100.00
2023-05-07T22:23:23.819Z,100.00
2023-05-07T22:25:51.913Z,100.00
2023-05-07T22:28:20.169Z,100.00
2023-05-07T22:30:49.713Z,100.00
2023-05-07T22:33:17.950Z,100.00
2023-05-07T22:35:46.108Z,100.00
2023-05-07T22:38:14.264Z,100.00
2023-05-07T22:40:42.474Z,100.00
2023-05-07T22:43:10.772Z,100.00
2023-05-07T22:45:39.060Z,100.00
2023-05-07T22:48:09.278Z,100.00
2023-05-07T22:50:38.733Z,100.00
2023-05-07T22:53:07.405Z,100.00
2023-05-07T22:55:36.185Z,100.00
2023-05-07T22:58:04.389Z,100.00
2023-05-07T23:00:32.498Z,100.00
2023-05-07T23:03:00.735Z,100.00
2023-05-07T23:05:30.381Z,100.00
2023-05-07T23:07:58.547Z,100.00
2023-05-07T23:10:26.679Z,100.00
2023-05-07T23:12:54.874Z,100.00
2023-05-07T23:15:23.369Z,100.00
2023-05-07T23:17:51.677Z,100.00
2023-05-07T23:20:20.116Z,100.00
2023-05-07T23:22:49.829Z,100.00
2023-05-07T23:25:18.362Z,100.00
2023-05-07T23:27:46.994Z,100.00
2023-05-07T23:30:15.848Z,100.00
2023-05-07T23:32:44.179Z,100.00
2023-05-07T23:35:12.540Z,100.00
2023-05-07T23:37:40.754Z,100.00
2023-05-07T23:40:11.492Z,100.00
2023-05-07T23:42:39.898Z,100.00
2023-05-07T23:45:09.399Z,100.00
2023-05-07T23:47:37.602Z,100.00
2023-05-07T23:50:06.503Z,100.00
2023-05-07T23:52:34.696Z,100.00
2023-05-07T23:55:02.966Z,100.00
2023-05-07T23:57:32.507Z,100.00
